Huvudsida
METAR-TAF:

METAR-TAF

Flygplatser :

Kudat, Malaysia

latitud: 06-55N, longitud: 116-50E, höjd: 3 m

Aktuellt väderrapport

Denna rapport gjordes för 46 minuter sedan, klockan 15:00 UTC
Vind 5 kt från ost, varierande mellan nord/nordost och syd
Temperatur 29°C
Fuktighet 84%
Tryck 1009 hPa
Sikt 10 km eller mer
Få moln på en höjd av 1400 ft
Spridda moln på en höjd av 14000 ft
Brutna moln på en höjd av 28000 ft

METAR: WBKT 271500Z 10005KT 030V190 9999 FEW014 SCT140 BKN280 29/26 Q1009

Tid: 23:46 (15:46 UTC)


TAF: saknas

Aktuella väderrapporter och prognoser från 4000 flygplatser (METAR- och TAF-rapporter).

De tillgängliga stationerna syns som gula och röda prickar på kartan.

För musen över prickarna för att se namnen på stationerna.

Klicka sedan för att få väderrapporter och prognoser.

För att ändra kartan: Klicka på de gröna knapparna med ett svart kors på för att zooma in; den gröna knappen med ett streck på för att zooma ut; eller på de gröna pilarna för angränsande kartor.


METAR-TAF: